createdAt,value
2023-05-03T00:00:16.576Z,92.80
2023-05-03T00:02:44.940Z,92.70
2023-05-03T00:05:15.324Z,92.80
2023-05-03T00:07:43.923Z,93.20
2023-05-03T00:10:13.457Z,93.50
2023-05-03T00:12:40.922Z,93.80
2023-05-03T00:15:09.065Z,93.90
2023-05-03T00:17:40.049Z,93.90
2023-05-03T00:20:08.260Z,93.90
2023-05-03T00:22:35.576Z,94.00
2023-05-03T00:25:03.210Z,94.00
2023-05-03T00:27:31.538Z,94.30
2023-05-03T00:29:58.930Z,94.00
2023-05-03T00:32:26.296Z,94.10
2023-05-03T00:34:55.152Z,94.00
2023-05-03T00:37:26.089Z,94.00
2023-05-03T00:39:53.889Z,94.10
2023-05-03T00:42:21.088Z,94.20
2023-05-03T00:44:48.197Z,94.20
2023-05-03T00:47:16.865Z,94.10
2023-05-03T00:49:45.979Z,93.90
2023-05-03T00:52:13.672Z,93.80
2023-05-03T00:54:41.007Z,93.50
2023-05-03T00:57:08.890Z,93.30
2023-05-03T00:59:37.285Z,93.20
2023-05-03T01:02:04.805Z,93.20
2023-05-03T01:04:32.185Z,93.20
2023-05-03T01:07:37.120Z,93.20
2023-05-03T01:10:31.457Z,93.20
2023-05-03T01:13:16.729Z,93.00
2023-05-03T01:16:00.046Z,93.00
2023-05-03T01:18:34.343Z,92.90
2023-05-03T01:21:03.327Z,92.70
2023-05-03T01:23:42.681Z,92.70
2023-05-03T01:26:20.813Z,92.70
2023-05-03T01:28:48.424Z,92.70
2023-05-03T01:31:22.006Z,92.60
2023-05-03T01:34:14.860Z,92.90
2023-05-03T01:36:44.630Z,93.00
2023-05-03T01:39:19.736Z,92.70
2023-05-03T01:41:51.267Z,92.70
2023-05-03T01:44:19.923Z,92.90
2023-05-03T01:46:47.734Z,93.00
2023-05-03T01:49:14.838Z,92.90
2023-05-03T01:51:42.080Z,93.40
2023-05-03T01:54:10.316Z,93.60
2023-05-03T01:56:37.451Z,93.60
2023-05-03T01:59:05.171Z,94.20
2023-05-03T02:01:33.564Z,94.20
2023-05-03T02:04:01.004Z,94.30
2023-05-03T02:06:28.445Z,94.50
2023-05-03T02:08:56.317Z,94.40
2023-05-03T02:11:23.778Z,94.30
2023-05-03T02:13:51.333Z,94.20
2023-05-03T02:16:20.067Z,94.70
2023-05-03T02:18:47.468Z,95.00
2023-05-03T02:21:14.729Z,95.00
2023-05-03T02:23:43.433Z,94.70
2023-05-03T02:26:10.758Z,94.80
2023-05-03T02:28:37.863Z,95.30
2023-05-03T02:31:06.445Z,95.40
2023-05-03T02:33:33.831Z,95.20
2023-05-03T02:36:01.737Z,94.90
2023-05-03T02:38:28.993Z,94.80
2023-05-03T02:40:56.155Z,94.60
2023-05-03T02:43:23.736Z,95.20
2023-05-03T02:45:51.049Z,95.40
2023-05-03T02:48:19.715Z,95.70
2023-05-03T02:50:48.837Z,95.70
2023-05-03T02:53:16.595Z,95.50
2023-05-03T02:55:43.951Z,95.40
2023-05-03T02:58:11.108Z,95.20
2023-05-03T03:00:38.251Z,95.30
2023-05-03T03:03:05.562Z,95.20
2023-05-03T03:05:33.273Z,95.20
2023-05-03T03:08:02.060Z,95.20
2023-05-03T03:10:33.751Z,95.10
2023-05-03T03:13:02.296Z,95.10
2023-05-03T03:15:30.472Z,95.30
2023-05-03T03:17:58.438Z,95.20
2023-05-03T03:20:25.695Z,94.90
2023-05-03T03:22:53.128Z,94.90
2023-05-03T03:25:21.028Z,95.00
2023-05-03T03:27:48.850Z,95.00
2023-05-03T03:30:15.994Z,95.30
2023-05-03T03:32:43.359Z,94.90
2023-05-03T03:35:10.828Z,94.80
2023-05-03T03:37:39.953Z,94.60
2023-05-03T03:40:08.372Z,94.70
2023-05-03T03:42:35.803Z,94.60
2023-05-03T03:45:03.235Z,94.50
2023-05-03T03:47:30.378Z,94.40
2023-05-03T03:49:57.552Z,94.30
2023-05-03T03:52:25.000Z,94.30
2023-05-03T03:54:52.740Z,94.00
2023-05-03T03:57:20.246Z,94.10
2023-05-03T03:59:47.383Z,93.90
2023-05-03T04:02:14.583Z,93.80
2023-05-03T04:04:42.193Z,93.80
2023-05-03T04:07:09.717Z,93.80
2023-05-03T04:09:37.128Z,93.60
2023-05-03T04:12:04.863Z,93.40
2023-05-03T04:14:33.333Z,93.60
2023-05-03T04:17:01.986Z,93.60
2023-05-03T04:19:29.267Z,93.60
2023-05-03T04:21:59.113Z,93.80
2023-05-03T04:24:27.918Z,93.70
2023-05-03T04:26:56.313Z,93.60
2023-05-03T04:29:23.581Z,93.50
2023-05-03T04:31:50.960Z,93.30
2023-05-03T04:34:19.070Z,93.30
2023-05-03T04:36:49.738Z,93.50
2023-05-03T04:39:16.831Z,93.20
2023-05-03T04:41:44.479Z,92.80
2023-05-03T04:44:11.911Z,92.70
2023-05-03T04:46:41.365Z,92.50
2023-05-03T04:49:17.342Z,92.70
2023-05-03T04:51:44.582Z,92.30
2023-05-03T04:54:11.663Z,92.10
2023-05-03T04:56:38.896Z,92.10
2023-05-03T04:59:05.963Z,91.80
2023-05-03T05:01:33.203Z,91.70
2023-05-03T05:04:00.601Z,91.60
2023-05-03T05:06:28.002Z,91.20
2023-05-03T05:08:57.477Z,91.50
2023-05-03T05:11:24.594Z,91.30
2023-05-03T05:13:51.945Z,90.50
2023-05-03T05:16:19.613Z,90.60
2023-05-03T05:18:47.012Z,90.60
2023-05-03T05:21:16.230Z,90.80
2023-05-03T05:23:43.425Z,90.40
2023-05-03T05:26:13.166Z,90.50
2023-05-03T05:28:40.372Z,90.40
2023-05-03T05:31:08.074Z,90.30
2023-05-03T05:33:36.611Z,90.40
2023-05-03T05:36:05.035Z,90.40
2023-05-03T05:38:32.223Z,90.20
2023-05-03T05:40:59.507Z,90.20
2023-05-03T05:43:26.704Z,90.10
2023-05-03T05:45:55.969Z,90.00
2023-05-03T05:48:23.293Z,90.00
2023-05-03T05:50:50.474Z,90.10
2023-05-03T05:53:18.039Z,89.50
2023-05-03T05:55:45.648Z,89.90
2023-05-03T05:58:13.968Z,89.90
2023-05-03T06:00:43.559Z,89.30
2023-05-03T06:03:11.989Z,89.30
2023-05-03T06:05:40.109Z,88.60
2023-05-03T06:08:09.196Z,88.90
2023-05-03T06:10:36.524Z,89.30
2023-05-03T06:13:06.824Z,88.00
2023-05-03T06:15:34.230Z,88.30
2023-05-03T06:18:04.808Z,86.90
2023-05-03T06:20:34.571Z,86.30
2023-05-03T06:23:04.582Z,85.30
2023-05-03T06:25:32.760Z,84.90
2023-05-03T06:27:59.986Z,86.30
2023-05-03T06:30:28.774Z,85.70
2023-05-03T06:32:57.600Z,83.50
2023-05-03T06:35:25.043Z,82.70
2023-05-03T06:37:59.558Z,82.80
2023-05-03T06:40:27.664Z,82.30
2023-05-03T06:42:56.011Z,80.20
2023-05-03T06:45:31.936Z,81.30
2023-05-03T06:48:00.580Z,81.20
2023-05-03T06:50:27.865Z,80.80
2023-05-03T06:52:55.049Z,80.40
2023-05-03T06:55:22.458Z,80.30
2023-05-03T06:57:49.883Z,80.20
2023-05-03T07:00:17.429Z,81.00
2023-05-03T07:02:44.803Z,80.60
2023-05-03T07:05:15.750Z,79.60
2023-05-03T07:07:44.079Z,78.10
2023-05-03T07:10:15.865Z,78.90
2023-05-03T07:12:46.017Z,77.20
2023-05-03T07:15:13.514Z,78.20
2023-05-03T07:17:41.063Z,76.80
2023-05-03T07:20:08.591Z,76.30
2023-05-03T07:22:35.756Z,76.10
2023-05-03T07:25:03.186Z,74.50
2023-05-03T07:27:30.392Z,74.10
2023-05-03T07:29:58.517Z,72.40
2023-05-03T07:32:28.519Z,72.70
2023-05-03T07:34:55.797Z,72.70
2023-05-03T07:37:23.466Z,72.50
2023-05-03T07:39:51.096Z,72.60
2023-05-03T07:42:18.818Z,72.90
2023-05-03T07:44:46.055Z,73.20
2023-05-03T07:47:15.318Z,72.60
2023-05-03T07:49:43.970Z,73.30
2023-05-03T07:52:11.364Z,73.20
2023-05-03T07:54:39.100Z,72.40
2023-05-03T07:57:09.885Z,72.40
2023-05-03T07:59:39.546Z,73.00
2023-05-03T08:02:07.843Z,72.60
2023-05-03T08:04:57.000Z,71.70
2023-05-03T08:07:28.014Z,70.80
2023-05-03T08:09:57.043Z,70.40
2023-05-03T08:12:27.731Z,70.90
2023-05-03T08:14:56.594Z,69.50
2023-05-03T08:17:26.220Z,68.40
2023-05-03T08:19:56.446Z,69.60
2023-05-03T08:22:26.678Z,68.00
2023-05-03T08:24:56.538Z,67.50
2023-05-03T08:27:26.374Z,65.60
2023-05-03T08:29:56.417Z,65.80
2023-05-03T08:32:25.223Z,65.50
2023-05-03T08:34:54.590Z,65.90
2023-05-03T08:37:27.580Z,65.30
2023-05-03T08:39:55.451Z,64.30
2023-05-03T08:42:25.889Z,64.20
2023-05-03T08:47:38.539Z,63.20
2023-05-03T08:50:10.889Z,64.30
2023-05-03T08:52:43.473Z,64.30
2023-05-03T08:55:13.918Z,64.60
2023-05-03T08:57:41.703Z,62.50
2023-05-03T09:00:11.884Z,61.30
2023-05-03T09:02:44.592Z,60.90
2023-05-03T09:05:19.472Z,61.00
2023-05-03T09:08:02.758Z,61.40
2023-05-03T09:10:34.126Z,59.60
2023-05-03T09:13:04.284Z,58.80
2023-05-03T09:15:31.866Z,57.10
2023-05-03T09:18:11.753Z,57.40
2023-05-03T09:20:52.297Z,57.30
2023-05-03T09:23:31.873Z,57.40
2023-05-03T09:26:00.844Z,57.50
2023-05-03T09:28:36.784Z,57.80
2023-05-03T09:31:10.838Z,57.60
2023-05-03T09:33:42.047Z,58.80
2023-05-03T09:36:09.584Z,58.90
2023-05-03T09:38:37.035Z,58.20
2023-05-03T09:41:11.444Z,57.80
2023-05-03T09:43:55.655Z,57.80
2023-05-03T09:46:26.339Z,57.10
2023-05-03T09:48:57.558Z,57.60
2023-05-03T09:51:25.100Z,58.00
2023-05-03T09:53:56.910Z,57.40
2023-05-03T09:56:32.691Z,57.80
2023-05-03T09:59:03.499Z,57.20
2023-05-03T10:01:38.714Z,58.50
2023-05-03T10:04:13.504Z,56.80
2023-05-03T10:06:45.673Z,57.60
2023-05-03T10:09:33.313Z,56.80
2023-05-03T10:12:10.089Z,57.20
2023-05-03T10:14:41.785Z,57.50
2023-05-03T10:17:46.213Z,56.90
2023-05-03T10:20:44.472Z,57.00
2023-05-03T10:23:15.798Z,54.30
2023-05-03T10:26:11.408Z,53.90
2023-05-03T10:28:39.114Z,54.80
2023-05-03T10:31:06.578Z,54.10
2023-05-03T10:33:36.703Z,53.40
2023-05-03T10:36:16.349Z,54.60
2023-05-03T10:38:43.571Z,55.00
2023-05-03T10:41:11.088Z,55.50
2023-05-03T10:43:43.539Z,53.80
2023-05-03T10:46:33.090Z,54.50
2023-05-03T10:49:20.461Z,54.90
2023-05-03T10:51:51.027Z,54.30
2023-05-03T10:54:21.983Z,54.80
2023-05-03T10:56:51.140Z,54.50
2023-05-03T10:59:22.069Z,54.00
2023-05-03T11:02:13.677Z,53.30
2023-05-03T11:04:45.747Z,52.80
2023-05-03T11:07:24.781Z,53.40
2023-05-03T11:09:52.238Z,52.90
2023-05-03T11:12:20.610Z,53.00
2023-05-03T11:14:52.206Z,52.30
2023-05-03T11:17:19.517Z,51.50
2023-05-03T11:19:51.038Z,52.00
2023-05-03T11:22:21.287Z,51.80
2023-05-03T11:24:53.153Z,52.40
2023-05-03T11:27:30.140Z,51.40
2023-05-03T11:30:02.545Z,51.70
2023-05-03T11:32:30.587Z,51.40
2023-05-03T11:35:04.036Z,51.40
2023-05-03T11:37:36.573Z,51.50
2023-05-03T11:40:06.673Z,51.20
2023-05-03T11:42:36.240Z,51.60
2023-05-03T11:45:04.514Z,52.30
2023-05-03T11:47:39.806Z,51.50
2023-05-03T11:50:07.381Z,51.90
2023-05-03T11:52:37.513Z,51.60
2023-05-03T11:55:07.121Z,52.00
2023-05-03T11:57:34.261Z,52.00
2023-05-03T12:00:17.757Z,52.30
2023-05-03T12:02:49.030Z,51.80
2023-05-03T12:05:20.832Z,51.00
2023-05-03T12:07:48.471Z,50.80
2023-05-03T12:10:23.538Z,51.10
2023-05-03T12:12:57.414Z,51.20
2023-05-03T12:15:33.948Z,50.70
2023-05-03T12:18:04.835Z,49.70
2023-05-03T12:21:28.172Z,50.30
2023-05-03T12:23:26.783Z,50.60
2023-05-03T12:25:58.111Z,50.30
2023-05-03T12:28:28.082Z,49.30
2023-05-03T12:30:57.631Z,49.90
2023-05-03T12:33:43.805Z,50.30
2023-05-03T12:36:17.006Z,50.80
2023-05-03T12:39:15.951Z,51.00
2023-05-03T12:44:17.282Z,49.90
2023-05-03T12:46:45.648Z,49.80
2023-05-03T12:49:15.524Z,49.90
2023-05-03T12:51:53.496Z,49.80
2023-05-03T12:54:27.916Z,49.70
2023-05-03T12:59:42.003Z,50.20
2023-05-03T13:04:57.860Z,50.50
2023-05-03T13:07:39.485Z,50.30
2023-05-03T13:12:41.038Z,49.90
2023-05-03T13:15:09.198Z,49.10
2023-05-03T13:17:36.328Z,48.90
2023-05-03T13:20:07.410Z,48.90
2023-05-03T13:22:34.858Z,49.20
2023-05-03T13:25:09.879Z,49.20
2023-05-03T13:27:37.102Z,49.60
2023-05-03T13:30:05.203Z,50.00
2023-05-03T13:32:33.398Z,50.00
2023-05-03T13:35:11.705Z,49.60
2023-05-03T13:37:39.267Z,49.60
2023-05-03T13:40:08.126Z,49.60
2023-05-03T13:42:35.720Z,49.50
2023-05-03T13:45:06.804Z,49.50
2023-05-03T13:48:05.316Z,49.20
2023-05-03T13:50:23.594Z,49.20
2023-05-03T13:52:50.892Z,49.30
2023-05-03T13:55:22.810Z,49.40
2023-05-03T13:57:51.551Z,49.60
2023-05-03T14:00:20.899Z,49.90
2023-05-03T14:02:48.528Z,49.90
2023-05-03T14:05:17.630Z,49.40
2023-05-03T14:07:46.092Z,49.70
2023-05-03T14:10:13.474Z,49.70
2023-05-03T14:12:42.467Z,49.50
2023-05-03T14:15:11.903Z,49.60
2023-05-03T14:17:39.425Z,49.20
2023-05-03T14:20:09.425Z,49.50
2023-05-03T14:22:38.411Z,49.60
2023-05-03T14:25:06.008Z,49.60
2023-05-03T14:27:33.394Z,49.50
2023-05-03T14:30:00.902Z,49.70
2023-05-03T14:32:28.274Z,50.00
2023-05-03T14:34:57.224Z,49.80
2023-05-03T14:37:24.497Z,49.60
2023-05-03T14:39:51.991Z,50.00
2023-05-03T14:42:19.107Z,50.20
2023-05-03T14:44:46.868Z,50.10
2023-05-03T14:47:14.187Z,50.00
2023-05-03T14:49:41.677Z,50.00
2023-05-03T14:52:09.430Z,49.40
2023-05-03T14:54:37.528Z,49.70
2023-05-03T14:57:05.027Z,49.60
2023-05-03T14:59:33.537Z,49.80
2023-05-03T15:02:02.940Z,49.50
2023-05-03T15:04:31.135Z,49.10
2023-05-03T15:07:02.970Z,49.00
2023-05-03T15:09:33.914Z,48.80
2023-05-03T15:12:02.123Z,48.60
2023-05-03T15:14:30.891Z,48.70
2023-05-03T15:16:58.646Z,48.50
2023-05-03T15:19:26.910Z,48.80
2023-05-03T15:21:54.771Z,48.70
2023-05-03T15:24:22.322Z,48.10
2023-05-03T15:26:49.704Z,48.40
2023-05-03T15:29:18.152Z,48.40
2023-05-03T15:31:46.343Z,48.80
2023-05-03T15:34:16.605Z,48.70
2023-05-03T15:36:44.005Z,48.40
2023-05-03T15:39:14.520Z,48.70
2023-05-03T15:42:21.251Z,48.90
2023-05-03T15:44:52.643Z,48.10
2023-05-03T15:47:20.320Z,48.30
2023-05-03T15:49:47.465Z,48.30
2023-05-03T15:52:14.754Z,48.50
2023-05-03T15:54:43.491Z,48.80
2023-05-03T15:57:10.741Z,48.70
2023-05-03T15:59:44.856Z,48.90
2023-05-03T16:05:33.842Z,48.90
2023-05-03T16:08:36.964Z,48.80
2023-05-03T16:11:09.468Z,49.00
2023-05-03T16:13:36.976Z,49.30
2023-05-03T16:16:04.401Z,49.30
2023-05-03T16:18:36.364Z,49.20
2023-05-03T16:21:03.888Z,49.40
2023-05-03T16:23:31.126Z,49.50
2023-05-03T16:26:17.049Z,49.30
2023-05-03T16:28:44.576Z,49.40
2023-05-03T16:31:13.450Z,50.00
2023-05-03T16:33:42.313Z,50.20
2023-05-03T16:36:30.574Z,50.20
2023-05-03T16:39:06.249Z,50.30
2023-05-03T16:41:34.713Z,50.50
2023-05-03T16:44:04.867Z,50.70
2023-05-03T16:46:36.787Z,50.70
2023-05-03T16:49:05.318Z,50.60
2023-05-03T16:51:33.659Z,50.80
2023-05-03T16:54:04.296Z,50.90
2023-05-03T16:56:32.274Z,50.90
2023-05-03T17:02:22.010Z,50.90
2023-05-03T17:05:01.133Z,51.30
2023-05-03T17:07:28.481Z,51.50
2023-05-03T17:09:57.406Z,51.90
2023-05-03T17:12:27.336Z,52.00
2023-05-03T17:14:55.017Z,52.10
2023-05-03T17:17:22.527Z,52.50
2023-05-03T17:19:49.697Z,53.00
2023-05-03T17:22:17.267Z,53.10
2023-05-03T17:24:47.559Z,53.10
2023-05-03T17:27:14.762Z,53.30
2023-05-03T17:29:42.018Z,53.30
2023-05-03T17:32:09.646Z,53.50
2023-05-03T17:34:39.281Z,54.00
2023-05-03T17:37:07.700Z,54.10
2023-05-03T17:39:35.946Z,54.30
2023-05-03T17:42:04.581Z,54.20
2023-05-03T17:44:35.363Z,54.40
2023-05-03T17:47:02.582Z,54.90
2023-05-03T17:49:52.068Z,54.70
2023-05-03T17:52:20.958Z,54.90
2023-05-03T17:54:48.196Z,55.90
2023-05-03T17:57:17.274Z,56.80
2023-05-03T17:59:45.856Z,56.80
2023-05-03T18:02:15.580Z,56.70
2023-05-03T18:04:47.323Z,56.40
2023-05-03T18:07:17.676Z,56.40
2023-05-03T18:09:49.255Z,56.30
2023-05-03T18:12:17.428Z,57.10
2023-05-03T18:14:46.780Z,58.10
2023-05-03T18:17:19.703Z,58.40
2023-05-03T18:19:46.921Z,58.50
2023-05-03T18:22:15.811Z,58.60
2023-05-03T18:24:43.300Z,59.00
2023-05-03T18:27:16.388Z,59.50
2023-05-03T18:29:43.593Z,59.30
2023-05-03T18:32:11.769Z,60.20
2023-05-03T18:34:39.034Z,59.40
2023-05-03T18:37:06.532Z,59.20
2023-05-03T18:39:35.478Z,59.80
2023-05-03T18:42:02.795Z,59.80
2023-05-03T18:44:33.966Z,59.50
2023-05-03T18:47:01.702Z,60.00
2023-05-03T18:49:28.893Z,59.30
2023-05-03T18:51:56.192Z,60.30
2023-05-03T18:54:23.631Z,61.20
2023-05-03T18:56:50.910Z,61.40
2023-05-03T18:59:18.714Z,60.90
2023-05-03T19:01:46.484Z,62.70
2023-05-03T19:04:14.844Z,63.30
2023-05-03T19:06:42.516Z,64.40
2023-05-03T19:09:13.605Z,63.10
2023-05-03T19:11:42.793Z,63.00
2023-05-03T19:14:10.027Z,63.20
2023-05-03T19:16:37.971Z,63.50
2023-05-03T19:19:05.230Z,63.30
2023-05-03T19:21:32.856Z,63.40
2023-05-03T19:24:00.147Z,63.40
2023-05-03T19:26:27.294Z,63.90
2023-05-03T19:28:54.558Z,63.60
2023-05-03T19:31:21.843Z,64.30
2023-05-03T19:33:51.718Z,64.40
2023-05-03T19:36:18.841Z,64.80
2023-05-03T19:38:45.996Z,64.90
2023-05-03T19:41:13.137Z,65.60
2023-05-03T19:43:41.014Z,64.50
2023-05-03T19:46:08.971Z,66.50
2023-05-03T19:48:42.593Z,66.90
2023-05-03T19:51:15.846Z,66.00
2023-05-03T19:53:43.146Z,67.00
2023-05-03T19:56:13.424Z,65.60
2023-05-03T19:58:41.222Z,66.30
2023-05-03T20:01:09.090Z,67.00
2023-05-03T20:03:38.053Z,68.60
2023-05-03T20:06:08.022Z,67.10
2023-05-03T20:08:36.265Z,66.40
2023-05-03T20:11:08.000Z,67.70
2023-05-03T20:13:35.282Z,68.60
2023-05-03T20:16:04.989Z,67.60
2023-05-03T20:18:32.301Z,69.80
2023-05-03T20:21:00.536Z,69.20
2023-05-03T20:23:27.745Z,68.70
2023-05-03T20:25:57.110Z,69.10
2023-05-03T20:28:27.640Z,69.60
2023-05-03T20:30:58.624Z,69.40
2023-05-03T20:33:25.968Z,69.30
2023-05-03T20:35:54.388Z,69.80
2023-05-03T20:38:21.835Z,69.20
2023-05-03T20:40:50.143Z,70.00
2023-05-03T20:43:17.596Z,69.90
2023-05-03T20:45:47.867Z,71.00
2023-05-03T20:48:16.251Z,71.00
2023-05-03T20:50:44.010Z,69.80
2023-05-03T20:53:13.106Z,71.20
2023-05-03T20:55:41.610Z,70.00
2023-05-03T20:58:12.542Z,70.40
2023-05-03T21:00:40.971Z,71.10
2023-05-03T21:03:08.155Z,72.00
2023-05-03T21:05:41.988Z,71.70
2023-05-03T21:08:09.194Z,71.40
2023-05-03T21:10:36.307Z,70.80
2023-05-03T21:13:03.809Z,70.90
2023-05-03T21:15:31.038Z,71.80
2023-05-03T21:18:00.705Z,71.40
2023-05-03T21:20:27.810Z,71.20
2023-05-03T21:22:55.259Z,71.30
2023-05-03T21:25:22.701Z,71.20
2023-05-03T21:27:49.817Z,71.30
2023-05-03T21:30:16.936Z,71.40
2023-05-03T21:32:44.879Z,70.70
2023-05-03T21:35:12.197Z,71.50
2023-05-03T21:37:39.336Z,72.10
2023-05-03T21:40:07.823Z,70.80
2023-05-03T21:42:35.063Z,72.10
2023-05-03T21:45:09.726Z,71.90
2023-05-03T21:47:38.235Z,71.60
2023-05-03T21:50:12.296Z,72.40
2023-05-03T21:52:39.536Z,72.10
2023-05-03T21:55:07.245Z,72.40
2023-05-03T21:57:35.569Z,73.50
2023-05-03T22:00:05.286Z,72.80
2023-05-03T22:02:32.873Z,72.30
2023-05-03T22:05:00.317Z,71.70
2023-05-03T22:07:27.847Z,71.70
2023-05-03T22:09:55.130Z,71.80
2023-05-03T22:12:24.797Z,71.70
2023-05-03T22:14:53.217Z,71.50
2023-05-03T22:17:21.170Z,71.50
2023-05-03T22:19:50.397Z,71.00
2023-05-03T22:22:17.667Z,71.30
2023-05-03T22:24:44.883Z,72.00
2023-05-03T22:27:18.993Z,71.60
2023-05-03T22:29:46.542Z,71.20
2023-05-03T22:32:14.381Z,73.20
2023-05-03T22:34:41.569Z,72.60
2023-05-03T22:37:08.663Z,72.10
2023-05-03T22:39:35.871Z,72.30
2023-05-03T22:42:03.436Z,72.30
2023-05-03T22:44:33.590Z,72.50
2023-05-03T22:47:02.127Z,73.00
2023-05-03T22:49:29.455Z,72.40
2023-05-03T22:51:56.572Z,72.80
2023-05-03T22:54:25.802Z,73.50
2023-05-03T22:56:54.701Z,74.60
2023-05-03T22:59:21.977Z,75.00
2023-05-03T23:01:49.649Z,76.00
2023-05-03T23:04:17.051Z,75.80
2023-05-03T23:06:44.867Z,75.60
2023-05-03T23:09:13.504Z,75.60
2023-05-03T23:11:40.646Z,75.30
2023-05-03T23:14:07.782Z,77.10
2023-05-03T23:16:34.948Z,78.30
2023-05-03T23:19:02.209Z,78.60
2023-05-03T23:21:29.346Z,78.40
2023-05-03T23:23:56.760Z,79.30
2023-05-03T23:26:23.842Z,79.40
2023-05-03T23:28:51.999Z,80.70
2023-05-03T23:31:19.462Z,79.90
2023-05-03T23:33:46.914Z,80.90
2023-05-03T23:36:14.477Z,80.60
2023-05-03T23:38:41.835Z,81.20
2023-05-03T23:41:09.237Z,82.00
2023-05-03T23:43:38.988Z,82.50
2023-05-03T23:46:06.211Z,82.30
2023-05-03T23:48:33.612Z,82.30
2023-05-03T23:51:00.786Z,83.10
2023-05-03T23:53:29.426Z,83.50
2023-05-03T23:55:56.776Z,83.80
2023-05-03T23:58:23.896Z,83.60
